createdAt,value
2022-10-14T00:01:27.008Z,643.38
2022-10-14T00:03:55.993Z,89.35
2022-10-14T00:06:27.910Z,452.67
2022-10-14T00:08:57.270Z,788.08
2022-10-14T00:11:29.438Z,782.83
2022-10-14T00:14:00.207Z,216.82
2022-10-14T00:16:31.414Z,76.72
2022-10-14T00:19:00.596Z,117.38
2022-10-14T00:21:29.871Z,41.03
2022-10-14T00:23:58.719Z,362.70
2022-10-14T00:26:31.801Z,74.63
2022-10-14T00:29:01.355Z,136.68
2022-10-14T00:31:33.905Z,163.80
2022-10-14T00:34:02.809Z,242.57
2022-10-14T00:36:31.527Z,317.35
2022-10-14T00:38:59.846Z,300.92
2022-10-14T00:41:32.507Z,243.57
2022-10-14T00:44:05.864Z,178.65
2022-10-14T00:46:36.303Z,124.57
2022-10-14T00:49:13.162Z,89.40
2022-10-14T00:51:45.185Z,62.38
2022-10-14T00:56:46.760Z,83.57
2022-10-14T01:01:43.828Z,112.88
2022-10-14T01:04:12.551Z,289.52
2022-10-14T01:06:50.159Z,239.90
2022-10-14T01:09:27.825Z,423.40
2022-10-14T01:12:35.640Z,95.38
2022-10-14T01:15:08.689Z,176.50
2022-10-14T01:17:49.567Z,521.78
2022-10-14T01:20:58.526Z,341.83
2022-10-14T01:23:55.561Z,93.85
2022-10-14T01:26:44.380Z,133.63
2022-10-14T01:29:29.002Z,220.95
2022-10-14T01:32:05.380Z,88.05
2022-10-14T01:34:42.019Z,115.38
2022-10-14T01:37:17.709Z,222.43
2022-10-14T01:39:51.955Z,115.78
2022-10-14T01:42:23.966Z,114.88
2022-10-14T01:44:57.819Z,150.07
2022-10-14T01:47:34.214Z,126.63
2022-10-14T01:50:10.425Z,267.42
2022-10-14T01:52:45.074Z,132.68
2022-10-14T01:55:19.774Z,140.40
2022-10-14T01:57:49.850Z,203.23
2022-10-14T02:00:18.910Z,165.65
2022-10-14T02:02:48.418Z,301.35
2022-10-14T02:05:23.534Z,208.18
2022-10-14T02:07:59.338Z,282.25
2022-10-14T02:10:40.942Z,116.40
2022-10-14T02:13:28.697Z,130.52
2022-10-14T02:16:07.404Z,145.40
2022-10-14T02:18:42.278Z,134.73
2022-10-14T02:21:21.941Z,176.18
2022-10-14T02:23:56.708Z,136.85
2022-10-14T02:26:27.522Z,131.25
2022-10-14T02:28:57.878Z,153.75
2022-10-14T02:31:28.039Z,179.23
2022-10-14T02:34:03.353Z,123.13
2022-10-14T02:36:33.837Z,152.60
2022-10-14T02:39:10.756Z,143.10
2022-10-14T02:41:39.853Z,133.52
2022-10-14T02:44:09.768Z,120.45
2022-10-14T02:46:41.635Z,119.18
2022-10-14T02:49:13.052Z,149.10
2022-10-14T02:51:41.176Z,138.90
2022-10-14T02:54:12.271Z,151.48
2022-10-14T02:56:41.060Z,121.57
2022-10-14T02:59:09.209Z,129.55
2022-10-14T03:01:38.026Z,129.73
2022-10-14T03:04:08.264Z,127.38
2022-10-14T03:06:38.751Z,140.13
2022-10-14T03:09:06.843Z,174.45
2022-10-14T03:11:37.819Z,134.63
2022-10-14T03:14:08.879Z,123.78
2022-10-14T03:16:38.626Z,130.45
2022-10-14T03:19:07.600Z,123.55
2022-10-14T03:21:45.484Z,136.75
2022-10-14T03:24:19.613Z,120.65
2022-10-14T03:26:52.170Z,168.60
2022-10-14T03:29:26.053Z,122.13
2022-10-14T03:32:13.954Z,148.60
2022-10-14T03:35:01.392Z,119.43
2022-10-14T03:37:31.003Z,143.55
2022-10-14T03:40:00.079Z,170.23
2022-10-14T03:42:28.492Z,154.68
2022-10-14T03:44:57.347Z,154.02
2022-10-14T03:49:58.093Z,157.52
2022-10-14T03:52:36.841Z,159.40
2022-10-14T03:55:28.364Z,166.55
2022-10-14T03:57:57.427Z,161.80
2022-10-14T04:00:25.583Z,162.95
2022-10-14T04:03:06.781Z,161.07
2022-10-14T04:05:39.760Z,149.90
2022-10-14T04:08:21.662Z,166.15
2022-10-14T04:11:03.342Z,159.68
2022-10-14T04:13:37.608Z,172.13
2022-10-14T04:16:07.603Z,164.85
2022-10-14T04:18:40.305Z,166.50
2022-10-14T04:21:13.261Z,191.93
2022-10-14T04:23:47.891Z,168.73
2022-10-14T04:26:18.313Z,167.73
2022-10-14T04:28:47.812Z,173.70
2022-10-14T04:31:29.024Z,197.95
2022-10-14T04:34:02.271Z,188.82
2022-10-14T04:36:35.899Z,172.38
2022-10-14T04:39:08.921Z,200.05
2022-10-14T04:41:38.639Z,184.63
2022-10-14T04:44:07.269Z,216.15
2022-10-14T04:46:43.434Z,180.50
2022-10-14T04:49:12.713Z,183.95
2022-10-14T04:51:50.120Z,199.32
2022-10-14T04:54:25.959Z,245.05
2022-10-14T04:56:56.545Z,211.25
2022-10-14T04:59:24.703Z,201.13
2022-10-14T05:02:11.771Z,189.52
2022-10-14T05:04:45.713Z,211.57
2022-10-14T05:07:14.415Z,228.25
2022-10-14T05:09:48.635Z,229.48
2022-10-14T05:12:24.966Z,226.75
2022-10-14T05:14:58.499Z,212.40
2022-10-14T05:17:39.660Z,197.13
2022-10-14T05:20:09.950Z,209.98
2022-10-14T05:22:40.449Z,227.63
2022-10-14T05:25:10.747Z,229.68
2022-10-14T05:27:39.208Z,226.70
2022-10-14T05:30:09.707Z,224.20
2022-10-14T05:32:43.629Z,212.27
2022-10-14T05:35:12.337Z,224.02
2022-10-14T05:37:42.418Z,335.02
2022-10-14T05:40:13.129Z,269.58
2022-10-14T05:42:41.425Z,251.65
2022-10-14T05:45:10.811Z,218.02
2022-10-14T05:47:45.452Z,219.50
2022-10-14T05:50:18.284Z,226.70
2022-10-14T05:52:47.875Z,192.38
2022-10-14T05:55:24.348Z,203.10
2022-10-14T05:57:57.363Z,223.88
2022-10-14T06:00:30.807Z,331.40
2022-10-14T06:03:05.029Z,205.35
2022-10-14T06:05:38.304Z,228.85
2022-10-14T06:08:08.300Z,236.35
2022-10-14T06:10:40.884Z,172.00
2022-10-14T06:13:09.315Z,246.30
2022-10-14T06:15:39.808Z,207.13
2022-10-14T06:18:08.308Z,159.00
2022-10-14T06:20:36.557Z,172.80
2022-10-14T06:23:05.830Z,199.25
2022-10-14T06:25:34.344Z,193.85
2022-10-14T06:28:07.453Z,175.45
2022-10-14T06:30:37.666Z,181.98
2022-10-14T06:33:06.375Z,173.52
2022-10-14T06:35:34.568Z,170.25
2022-10-14T06:38:02.941Z,239.52
2022-10-14T06:40:31.075Z,176.27
2022-10-14T06:42:59.836Z,262.33
2022-10-14T06:45:29.343Z,163.13
2022-10-14T06:47:58.046Z,201.75
2022-10-14T06:50:26.321Z,174.70
2022-10-14T06:52:54.560Z,182.45
2022-10-14T06:55:22.978Z,184.32
2022-10-14T06:57:51.581Z,170.23
2022-10-14T07:00:20.476Z,167.27
2022-10-14T07:02:50.447Z,199.57
2022-10-14T07:05:18.917Z,152.05
2022-10-14T07:07:47.512Z,158.80
2022-10-14T07:10:15.906Z,159.35
2022-10-14T07:12:44.078Z,159.52
2022-10-14T07:15:12.603Z,146.50
2022-10-14T07:17:40.955Z,168.32
2022-10-14T07:20:12.610Z,159.52
2022-10-14T07:22:40.845Z,161.32
2022-10-14T07:25:10.662Z,152.77
2022-10-14T07:27:39.463Z,140.75
2022-10-14T07:30:10.677Z,372.70
2022-10-14T07:32:41.943Z,288.55
2022-10-14T07:35:11.715Z,479.90
2022-10-14T07:37:40.220Z,146.98
2022-10-14T07:40:10.855Z,150.60
2022-10-14T07:42:39.450Z,155.02
2022-10-14T07:45:09.275Z,144.02
2022-10-14T07:47:37.759Z,176.23
2022-10-14T07:50:07.399Z,384.23
2022-10-14T07:52:37.500Z,580.10
2022-10-14T07:55:07.793Z,203.98
2022-10-14T07:57:36.312Z,202.73
2022-10-14T08:00:05.905Z,361.63
2022-10-14T08:02:40.152Z,484.70
2022-10-14T08:05:32.779Z,329.33
2022-10-14T08:07:58.462Z,492.60
2022-10-14T08:10:26.675Z,562.95
2022-10-14T08:12:54.820Z,523.40
2022-10-14T08:15:22.934Z,574.22
2022-10-14T08:17:54.421Z,699.67
2022-10-14T08:20:24.764Z,805.97
2022-10-14T08:22:53.049Z,713.75
2022-10-14T08:25:24.010Z,275.00
2022-10-14T08:27:54.121Z,542.42
2022-10-14T08:30:22.789Z,466.83
2022-10-14T08:32:51.103Z,581.45
2022-10-14T08:35:19.280Z,706.33
2022-10-14T08:37:59.883Z,594.00
2022-10-14T08:40:39.892Z,479.88
2022-10-14T08:43:19.464Z,310.33
2022-10-14T08:45:55.037Z,175.50
2022-10-14T08:48:29.304Z,203.18
2022-10-14T08:51:06.362Z,125.45
2022-10-14T08:53:39.530Z,193.15
2022-10-14T08:56:12.338Z,223.07
2022-10-14T08:58:44.048Z,46.78
2022-10-14T09:01:22.135Z,48.20
2022-10-14T09:03:52.826Z,80.13
2022-10-14T09:06:27.031Z,252.43
2022-10-14T09:09:01.304Z,157.95
2022-10-14T09:11:38.650Z,33.28
2022-10-14T09:14:10.796Z,240.35
2022-10-14T09:16:41.619Z,172.70
2022-10-14T09:19:24.510Z,176.43
2022-10-14T09:21:55.280Z,85.95
2022-10-14T09:24:27.386Z,98.70
2022-10-14T09:26:59.501Z,61.53
2022-10-14T09:29:30.537Z,101.75
2022-10-14T09:32:02.627Z,165.20
2022-10-14T09:34:35.691Z,96.85
2022-10-14T09:37:26.120Z,71.70
2022-10-14T09:39:59.538Z,102.80
2022-10-14T09:42:45.250Z,60.97
2022-10-14T09:45:18.420Z,28.40
2022-10-14T09:47:54.129Z,41.88
2022-10-14T09:50:27.494Z,62.90
2022-10-14T09:53:02.493Z,99.88
2022-10-14T09:55:33.007Z,109.63
2022-10-14T09:58:09.454Z,702.38
2022-10-14T10:00:38.995Z,795.95
2022-10-14T10:03:08.216Z,1061.50
2022-10-14T10:05:37.509Z,1042.07
2022-10-14T10:08:18.535Z,1228.80
2022-10-14T10:11:05.466Z,1021.47
2022-10-14T10:13:48.219Z,922.97
2022-10-14T10:16:23.747Z,811.67
2022-10-14T10:18:54.074Z,822.60
2022-10-14T10:21:26.653Z,1083.75
2022-10-14T10:23:59.019Z,1049.03
2022-10-14T10:26:32.183Z,962.65
2022-10-14T10:29:05.073Z,907.55
2022-10-14T10:31:56.583Z,926.13
2022-10-14T10:35:04.047Z,849.42
2022-10-14T10:37:38.819Z,960.10
2022-10-14T10:40:26.960Z,930.58
2022-10-14T10:43:31.423Z,1266.88
2022-10-14T10:46:20.558Z,1265.53
2022-10-14T10:48:54.792Z,1370.20
2022-10-14T10:51:31.197Z,1244.60
2022-10-14T10:54:15.452Z,949.80
2022-10-14T10:56:49.957Z,1190.43
2022-10-14T10:59:43.207Z,1113.07
2022-10-14T11:02:54.973Z,1245.93
2022-10-14T11:05:38.938Z,1091.55
2022-10-14T11:08:42.060Z,942.08
2022-10-14T11:11:42.924Z,765.38
2022-10-14T11:14:30.566Z,891.50
2022-10-14T11:17:07.817Z,431.90
2022-10-14T11:19:52.813Z,1011.92
2022-10-14T11:22:44.817Z,994.20
2022-10-14T11:25:25.609Z,879.05
2022-10-14T11:28:03.375Z,1109.10
2022-10-14T11:30:44.363Z,1127.15
2022-10-14T11:33:29.318Z,1136.25
2022-10-14T11:36:13.906Z,762.58
2022-10-14T11:39:09.691Z,423.13
2022-10-14T11:42:01.338Z,927.72
2022-10-14T11:47:10.048Z,930.58
2022-10-14T11:49:43.903Z,938.58
2022-10-14T11:52:21.754Z,827.28
2022-10-14T11:54:56.598Z,942.33
2022-10-14T11:57:32.723Z,864.53
2022-10-14T12:00:03.728Z,838.60
2022-10-14T12:02:47.509Z,901.25
2022-10-14T12:05:22.145Z,874.15
2022-10-14T12:08:08.467Z,1.63
2022-10-14T12:10:44.261Z,1.23
2022-10-14T12:13:17.796Z,96.22
2022-10-14T12:15:52.991Z,4.40
2022-10-14T12:18:21.905Z,1.17
2022-10-14T12:20:59.162Z,1.98
2022-10-14T12:23:36.903Z,1.55
2022-10-14T12:26:15.276Z,2.05
2022-10-14T12:28:44.448Z,1.77
2022-10-14T12:31:34.828Z,1.08
2022-10-14T12:34:32.608Z,1.55
2022-10-14T12:37:01.099Z,1.02
2022-10-14T12:39:35.835Z,1.00
2022-10-14T12:42:06.969Z,1.25
2022-10-14T12:44:45.627Z,1.20
2022-10-14T12:47:22.483Z,1.30
2022-10-14T12:49:56.066Z,1.23
2022-10-14T12:52:29.355Z,1.00
2022-10-14T12:55:01.013Z,0.80
2022-10-14T13:00:02.572Z,1.42
2022-10-14T13:02:35.059Z,1.90
2022-10-14T13:05:08.402Z,1.13
2022-10-14T13:07:44.010Z,1.85
2022-10-14T13:11:08.987Z,1.45
2022-10-14T13:13:52.712Z,0.90
2022-10-14T13:17:04.128Z,0.70
2022-10-14T13:19:44.622Z,1.15
2022-10-14T13:22:42.111Z,0.80
2022-10-14T13:25:22.522Z,0.75
2022-10-14T13:28:12.436Z,0.85
2022-10-14T13:31:02.258Z,0.65
2022-10-14T13:33:40.471Z,0.88
2022-10-14T13:36:17.556Z,0.77
2022-10-14T13:38:52.918Z,2.45
2022-10-14T13:41:30.804Z,0.60
2022-10-14T13:44:02.898Z,1.45
2022-10-14T13:46:36.387Z,1.90
2022-10-14T13:49:13.824Z,0.85
2022-10-14T13:51:48.676Z,0.80
2022-10-14T13:54:20.265Z,0.98
2022-10-14T13:57:28.959Z,1.92
2022-10-14T14:02:43.955Z,1.48
2022-10-14T14:05:19.663Z,1.48
2022-10-14T14:11:03.815Z,1.13
2022-10-14T14:13:29.391Z,1.23
2022-10-14T14:15:59.225Z,2.28
2022-10-14T14:18:43.454Z,1.20
2022-10-14T14:21:24.259Z,1.92
2022-10-14T14:23:54.342Z,2.75
2022-10-14T14:26:29.520Z,1.58
2022-10-14T14:28:57.959Z,2.08
2022-10-14T14:31:47.889Z,1.45
2022-10-14T14:34:20.559Z,2.57
2022-10-14T14:36:55.215Z,1.15
2022-10-14T14:39:29.527Z,1.55
2022-10-14T14:42:00.863Z,2.38
2022-10-14T14:44:32.430Z,1.50
2022-10-14T14:47:04.755Z,2.00
2022-10-14T14:49:38.347Z,1.88
2022-10-14T14:52:07.438Z,2.85
2022-10-14T14:54:35.620Z,5.30
2022-10-14T14:57:09.272Z,2.53
2022-10-14T14:59:42.130Z,3.95
2022-10-14T15:02:17.879Z,2.53
2022-10-14T15:04:59.973Z,2.42
2022-10-14T15:07:29.189Z,2.55
2022-10-14T15:10:00.346Z,4.85
2022-10-14T15:12:31.239Z,2.92
2022-10-14T15:15:02.043Z,2.33
2022-10-14T15:17:35.193Z,5.38
2022-10-14T15:20:29.867Z,5.00
2022-10-14T15:22:58.382Z,5.20
2022-10-14T15:28:00.558Z,3.92
2022-10-14T15:30:34.985Z,10.48
2022-10-14T15:33:16.948Z,6.75
2022-10-14T15:35:46.779Z,4.97
2022-10-14T15:38:18.141Z,6.07
2022-10-14T15:40:47.918Z,6.35
2022-10-14T15:43:23.814Z,6.53
2022-10-14T15:46:13.661Z,7.28
2022-10-14T15:48:50.247Z,7.30
2022-10-14T15:51:20.182Z,6.53
2022-10-14T15:53:49.432Z,8.23
2022-10-14T15:56:17.717Z,7.38
2022-10-14T15:58:46.151Z,5.88
2022-10-14T16:01:19.373Z,8.48
2022-10-14T16:03:49.982Z,6.82
2022-10-14T16:06:19.386Z,7.28
2022-10-14T16:08:48.035Z,10.63
2022-10-14T16:11:21.705Z,9.65
2022-10-14T16:13:50.502Z,9.13
2022-10-14T16:16:25.021Z,9.73
2022-10-14T16:18:55.125Z,11.13
2022-10-14T16:21:23.633Z,12.07
2022-10-14T16:23:53.756Z,15.07
2022-10-14T16:26:22.164Z,13.88
2022-10-14T16:28:50.953Z,17.77
2022-10-14T16:31:19.306Z,15.80
2022-10-14T16:33:50.013Z,20.08
2022-10-14T16:36:19.711Z,16.35
2022-10-14T16:38:48.388Z,20.95
2022-10-14T16:41:16.584Z,19.58
2022-10-14T16:43:45.216Z,19.02
2022-10-14T16:46:15.667Z,16.45
2022-10-14T16:48:44.586Z,19.83
2022-10-14T16:51:12.914Z,18.25
2022-10-14T16:53:44.840Z,20.02
2022-10-14T16:59:02.341Z,20.13
2022-10-14T17:01:31.621Z,19.85
2022-10-14T17:04:00.244Z,18.35
2022-10-14T17:06:28.448Z,19.60
2022-10-14T17:08:58.370Z,22.77
2022-10-14T17:11:28.100Z,23.98
2022-10-14T17:13:59.510Z,22.92
2022-10-14T17:16:29.725Z,27.67
2022-10-14T17:18:59.727Z,23.58
2022-10-14T17:21:30.265Z,24.98
2022-10-14T17:24:03.209Z,25.83
2022-10-14T17:26:35.581Z,27.58
2022-10-14T17:29:04.130Z,25.48
2022-10-14T17:31:32.370Z,28.23
2022-10-14T17:34:00.907Z,28.08
2022-10-14T17:36:30.824Z,30.25
2022-10-14T17:39:01.362Z,24.40
2022-10-14T17:41:31.355Z,29.58
2022-10-14T17:44:01.533Z,27.17
2022-10-14T17:46:31.532Z,24.35
2022-10-14T17:49:03.787Z,27.65
2022-10-14T17:51:33.053Z,28.77
2022-10-14T17:54:05.892Z,25.10
2022-10-14T17:56:37.016Z,25.50
2022-10-14T17:59:08.306Z,26.93
2022-10-14T18:01:37.779Z,29.58
2022-10-14T18:04:25.057Z,26.15
2022-10-14T18:06:54.152Z,28.25
2022-10-14T18:09:23.960Z,22.95
2022-10-14T18:12:09.676Z,25.05
2022-10-14T18:14:38.750Z,23.40
2022-10-14T18:17:07.535Z,25.60
2022-10-14T18:19:36.114Z,23.58
2022-10-14T18:22:06.577Z,29.08
2022-10-14T18:24:39.181Z,27.83
2022-10-14T18:27:07.493Z,23.85
2022-10-14T18:29:36.011Z,24.38
2022-10-14T18:32:05.050Z,30.63
2022-10-14T18:34:33.315Z,22.65
2022-10-14T18:37:01.525Z,26.52
2022-10-14T18:39:29.810Z,21.85
2022-10-14T18:41:59.400Z,26.02
2022-10-14T18:44:27.775Z,24.23
2022-10-14T18:46:56.836Z,33.42
2022-10-14T18:49:25.043Z,24.35
2022-10-14T18:51:55.102Z,25.60
2022-10-14T18:54:24.811Z,26.55
2022-10-14T18:56:53.302Z,27.10
2022-10-14T18:59:24.363Z,25.02
2022-10-14T19:01:53.837Z,25.70
2022-10-14T19:04:26.694Z,25.70
2022-10-14T19:06:55.180Z,23.00
2022-10-14T19:09:29.005Z,20.42
2022-10-14T19:11:58.873Z,22.33
2022-10-14T19:14:31.751Z,19.70
2022-10-14T19:17:00.362Z,19.30
2022-10-14T19:19:28.539Z,18.20
2022-10-14T19:21:59.621Z,19.63
2022-10-14T19:24:28.300Z,18.03
2022-10-14T19:26:57.221Z,19.83
2022-10-14T19:29:25.395Z,18.80
2022-10-14T19:31:55.320Z,19.45
2022-10-14T19:34:26.922Z,18.45
2022-10-14T19:36:55.733Z,15.40
2022-10-14T19:39:24.301Z,17.73
2022-10-14T19:41:52.829Z,19.65
2022-10-14T19:44:21.087Z,14.88
2022-10-14T19:46:49.310Z,23.83
2022-10-14T19:49:19.043Z,18.23
2022-10-14T19:51:47.242Z,18.23
2022-10-14T19:54:15.775Z,23.00
2022-10-14T19:56:44.149Z,19.70
2022-10-14T19:59:14.020Z,18.08
2022-10-14T20:01:42.532Z,19.80
2022-10-14T20:04:10.940Z,22.52
2022-10-14T20:06:41.917Z,18.05
2022-10-14T20:09:12.445Z,19.63
2022-10-14T20:11:40.857Z,16.40
2022-10-14T20:14:09.245Z,16.35
2022-10-14T20:16:37.430Z,14.60
2022-10-14T20:19:05.953Z,15.30
2022-10-14T20:21:34.305Z,20.38
2022-10-14T20:24:03.952Z,18.38
2022-10-14T20:26:32.973Z,16.35
2022-10-14T20:29:01.270Z,19.50
2022-10-14T20:31:29.537Z,19.33
2022-10-14T20:33:58.295Z,15.77
2022-10-14T20:36:26.489Z,18.20
2022-10-14T20:38:55.048Z,19.25
2022-10-14T20:41:27.470Z,20.33
2022-10-14T20:43:57.169Z,17.02
2022-10-14T20:46:25.536Z,16.25
2022-10-14T20:48:58.319Z,15.35
2022-10-14T20:51:26.784Z,17.83
2022-10-14T20:54:02.819Z,17.95
2022-10-14T20:56:35.388Z,15.32
2022-10-14T20:59:06.319Z,21.57
2022-10-14T21:01:36.565Z,22.38
2022-10-14T21:04:07.639Z,24.92
2022-10-14T21:06:38.588Z,22.43
2022-10-14T21:09:07.379Z,22.00
2022-10-14T21:11:37.286Z,22.13
2022-10-14T21:14:05.552Z,25.83
2022-10-14T21:16:35.912Z,25.10
2022-10-14T21:19:07.670Z,24.00
2022-10-14T21:21:39.644Z,26.63
2022-10-14T21:24:08.837Z,24.13
2022-10-14T21:26:38.966Z,24.88
2022-10-14T21:29:07.393Z,25.67
2022-10-14T21:31:35.766Z,27.95
2022-10-14T21:34:06.546Z,22.23
2022-10-14T21:36:35.759Z,21.80
2022-10-14T21:39:07.438Z,23.73
2022-10-14T21:41:36.066Z,27.23
2022-10-14T21:44:06.745Z,28.48
2022-10-14T21:46:35.932Z,22.77
2022-10-14T21:49:04.232Z,21.92
2022-10-14T21:51:33.623Z,22.85
2022-10-14T21:54:01.808Z,25.40
2022-10-14T21:56:30.066Z,20.23
2022-10-14T21:58:59.352Z,24.70
2022-10-14T22:01:30.610Z,27.48
2022-10-14T22:04:01.351Z,21.70
2022-10-14T22:06:31.154Z,25.95
2022-10-14T22:09:03.515Z,23.40
2022-10-14T22:11:34.384Z,27.08
2022-10-14T22:14:05.161Z,28.85
2022-10-14T22:16:35.203Z,27.27
2022-10-14T22:19:05.623Z,28.75
2022-10-14T22:21:36.484Z,25.60
2022-10-14T22:26:40.390Z,27.80
2022-10-14T22:29:13.691Z,26.75
2022-10-14T22:31:43.850Z,30.45
2022-10-14T22:34:14.786Z,26.38
2022-10-14T22:36:43.656Z,26.67
2022-10-14T22:39:14.821Z,24.55
2022-10-14T22:41:43.393Z,28.23
2022-10-14T22:44:12.568Z,30.15
2022-10-14T22:46:42.697Z,25.00
2022-10-14T22:49:11.080Z,27.65
2022-10-14T22:51:41.391Z,25.90
2022-10-14T22:54:10.438Z,25.50
2022-10-14T22:56:39.513Z,29.27
2022-10-14T22:59:10.537Z,28.98
2022-10-14T23:01:39.936Z,28.65
2022-10-14T23:04:10.636Z,31.58
2022-10-14T23:06:40.042Z,28.85
2022-10-14T23:09:08.248Z,28.88
2022-10-14T23:11:36.468Z,29.77
2022-10-14T23:14:07.067Z,24.80
2022-10-14T23:16:36.124Z,34.37
2022-10-14T23:19:04.507Z,32.38
2022-10-14T23:21:36.490Z,33.72
2022-10-14T23:24:08.536Z,30.02
2022-10-14T23:26:37.179Z,36.28
2022-10-14T23:29:09.821Z,43.08
2022-10-14T23:31:40.034Z,35.90
2022-10-14T23:34:13.091Z,31.00
2022-10-14T23:36:43.391Z,38.83
2022-10-14T23:39:12.196Z,42.08
2022-10-14T23:41:40.620Z,35.80
2022-10-14T23:44:08.924Z,38.10
2022-10-14T23:46:37.151Z,45.95
2022-10-14T23:49:24.923Z,42.92
2022-10-14T23:51:55.450Z,44.75
2022-10-14T23:54:23.794Z,53.13
2022-10-14T23:56:52.022Z,51.85
2022-10-14T23:59:20.166Z,45.70
